sensor_id;sensor_type;location;lat;lon;timestamp;P1;durP1;ratioP1;P2;durP2;ratioP2
65463;SDS011;52063;45.110;9.870;2023-08-24T00:02:05;10.87;;;7.80;;
65463;SDS011;52063;45.110;9.870;2023-08-24T00:04:31;9.57;;;7.93;;
65463;SDS011;52063;45.110;9.870;2023-08-24T00:06:57;11.45;;;7.65;;
65463;SDS011;52063;45.110;9.870;2023-08-24T00:09:22;12.43;;;8.30;;
65463;SDS011;52063;45.110;9.870;2023-08-24T00:11:48;10.70;;;7.57;;
65463;SDS011;52063;45.110;9.870;2023-08-24T00:14:13;11.10;;;7.60;;
65463;SDS011;52063;45.110;9.870;2023-08-24T00:16:39;10.10;;;6.97;;
65463;SDS011;52063;45.110;9.870;2023-08-24T00:19:05;9.88;;;7.22;;
65463;SDS011;52063;45.110;9.870;2023-08-24T00:21:32;11.07;;;7.30;;
65463;SDS011;52063;45.110;9.870;2023-08-24T00:23:57;8.40;;;7.53;;
65463;SDS011;52063;45.110;9.870;2023-08-24T00:26:24;8.73;;;7.35;;
65463;SDS011;52063;45.110;9.870;2023-08-24T00:28:50;12.90;;;7.40;;
65463;SDS011;52063;45.110;9.870;2023-08-24T00:31:16;11.13;;;7.70;;
65463;SDS011;52063;45.110;9.870;2023-08-24T00:33:41;10.03;;;7.90;;
65463;SDS011;52063;45.110;9.870;2023-08-24T00:36:07;11.50;;;7.10;;
65463;SDS011;52063;45.110;9.870;2023-08-24T00:38:32;10.23;;;7.95;;
65463;SDS011;52063;45.110;9.870;2023-08-24T00:40:58;10.23;;;8.40;;
65463;SDS011;52063;45.110;9.870;2023-08-24T00:43:27;15.52;;;8.98;;
65463;SDS011;52063;45.110;9.870;2023-08-24T00:45:56;10.93;;;8.60;;
65463;SDS011;52063;45.110;9.870;2023-08-24T00:48:23;13.10;;;9.10;;
65463;SDS011;52063;45.110;9.870;2023-08-24T00:50:54;13.38;;;8.60;;
65463;SDS011;52063;45.110;9.870;2023-08-24T00:53:20;12.57;;;9.15;;
65463;SDS011;52063;45.110;9.870;2023-08-24T00:55:48;8.32;;;7.40;;
65463;SDS011;52063;45.110;9.870;2023-08-24T00:58:13;13.80;;;7.90;;
65463;SDS011;52063;45.110;9.870;2023-08-24T01:00:40;13.80;;;7.80;;
65463;SDS011;52063;45.110;9.870;2023-08-24T01:03:06;8.23;;;7.43;;
65463;SDS011;52063;45.110;9.870;2023-08-24T01:05:31;12.47;;;7.67;;
65463;SDS011;52063;45.110;9.870;2023-08-24T01:07:57;11.10;;;8.10;;
65463;SDS011;52063;45.110;9.870;2023-08-24T01:10:22;10.90;;;7.93;;
65463;SDS011;52063;45.110;9.870;2023-08-24T01:13:06;12.03;;;8.10;;
65463;SDS011;52063;45.110;9.870;2023-08-24T01:15:55;10.77;;;8.02;;
65463;SDS011;52063;45.110;9.870;2023-08-24T01:18:26;10.00;;;8.25;;
65463;SDS011;52063;45.110;9.870;2023-08-24T01:20:52;13.02;;;8.07;;
65463;SDS011;52063;45.110;9.870;2023-08-24T01:23:33;9.88;;;8.18;;
65463;SDS011;52063;45.110;9.870;2023-08-24T01:26:14;10.67;;;8.20;;
65463;SDS011;52063;45.110;9.870;2023-08-24T01:28:45;12.45;;;8.55;;
65463;SDS011;52063;45.110;9.870;2023-08-24T01:31:14;9.85;;;8.07;;
65463;SDS011;52063;45.110;9.870;2023-08-24T01:33:41;10.57;;;7.60;;
65463;SDS011;52063;45.110;9.870;2023-08-24T01:36:07;10.57;;;8.00;;
65463;SDS011;52063;45.110;9.870;2023-08-24T01:38:34;12.75;;;8.60;;
65463;SDS011;52063;45.110;9.870;2023-08-24T01:41:07;11.80;;;8.63;;
65463;SDS011;52063;45.110;9.870;2023-08-24T01:43:34;14.43;;;8.15;;
65463;SDS011;52063;45.110;9.870;2023-08-24T01:46:04;9.63;;;8.40;;
65463;SDS011;52063;45.110;9.870;2023-08-24T01:48:30;12.15;;;7.72;;
65463;SDS011;52063;45.110;9.870;2023-08-24T01:50:58;15.43;;;8.48;;
65463;SDS011;52063;45.110;9.870;2023-08-24T01:53:26;11.33;;;9.03;;
65463;SDS011;52063;45.110;9.870;2023-08-24T01:55:53;16.15;;;9.43;;
65463;SDS011;52063;45.110;9.870;2023-08-24T01:58:18;10.93;;;9.03;;
65463;SDS011;52063;45.110;9.870;2023-08-24T02:00:44;13.30;;;9.52;;
65463;SDS011;52063;45.110;9.870;2023-08-24T02:03:10;16.33;;;9.10;;
65463;SDS011;52063;45.110;9.870;2023-08-24T02:05:35;9.07;;;8.17;;
65463;SDS011;52063;45.110;9.870;2023-08-24T02:08:01;10.50;;;7.73;;
65463;SDS011;52063;45.110;9.870;2023-08-24T02:10:26;8.48;;;7.40;;
65463;SDS011;52063;45.110;9.870;2023-08-24T02:12:52;9.07;;;7.40;;
65463;SDS011;52063;45.110;9.870;2023-08-24T02:15:18;11.63;;;7.40;;
65463;SDS011;52063;45.110;9.870;2023-08-24T02:17:43;10.05;;;7.32;;
65463;SDS011;52063;45.110;9.870;2023-08-24T02:20:10;9.65;;;7.38;;
65463;SDS011;52063;45.110;9.870;2023-08-24T02:22:36;8.77;;;7.37;;
65463;SDS011;52063;45.110;9.870;2023-08-24T02:25:02;9.43;;;7.30;;
65463;SDS011;52063;45.110;9.870;2023-08-24T02:27:30;10.25;;;7.22;;
65463;SDS011;52063;45.110;9.870;2023-08-24T02:29:56;8.82;;;7.93;;
65463;SDS011;52063;45.110;9.870;2023-08-24T02:32:22;9.30;;;8.30;;
65463;SDS011;52063;45.110;9.870;2023-08-24T02:34:47;10.30;;;7.27;;
65463;SDS011;52063;45.110;9.870;2023-08-24T02:37:12;8.80;;;7.18;;
65463;SDS011;52063;45.110;9.870;2023-08-24T02:39:40;12.50;;;8.48;;
65463;SDS011;52063;45.110;9.870;2023-08-24T02:42:06;11.43;;;7.00;;
65463;SDS011;52063;45.110;9.870;2023-08-24T02:44:31;8.67;;;7.80;;
65463;SDS011;52063;45.110;9.870;2023-08-24T02:46:57;12.00;;;8.15;;
65463;SDS011;52063;45.110;9.870;2023-08-24T02:49:24;8.80;;;7.43;;
65463;SDS011;52063;45.110;9.870;2023-08-24T02:51:49;7.95;;;7.15;;
65463;SDS011;52063;45.110;9.870;2023-08-24T02:54:15;11.13;;;8.50;;
65463;SDS011;52063;45.110;9.870;2023-08-24T02:56:40;8.77;;;7.77;;
65463;SDS011;52063;45.110;9.870;2023-08-24T02:59:06;11.35;;;7.68;;
65463;SDS011;52063;45.110;9.870;2023-08-24T03:01:31;7.63;;;6.83;;
65463;SDS011;52063;45.110;9.870;2023-08-24T03:03:57;7.53;;;6.83;;
65463;SDS011;52063;45.110;9.870;2023-08-24T03:06:23;9.00;;;8.20;;
65463;SDS011;52063;45.110;9.870;2023-08-24T03:08:49;12.05;;;8.18;;
65463;SDS011;52063;45.110;9.870;2023-08-24T03:11:15;15.57;;;9.27;;
65463;SDS011;52063;45.110;9.870;2023-08-24T03:13:41;16.50;;;10.18;;
65463;SDS011;52063;45.110;9.870;2023-08-24T03:16:06;14.50;;;10.63;;
65463;SDS011;52063;45.110;9.870;2023-08-24T03:18:33;11.82;;;10.05;;
65463;SDS011;52063;45.110;9.870;2023-08-24T03:20:58;11.32;;;9.98;;
65463;SDS011;52063;45.110;9.870;2023-08-24T03:23:24;11.80;;;8.77;;
65463;SDS011;52063;45.110;9.870;2023-08-24T03:25:49;11.60;;;8.57;;
65463;SDS011;52063;45.110;9.870;2023-08-24T03:28:15;11.30;;;7.80;;
65463;SDS011;52063;45.110;9.870;2023-08-24T03:30:46;11.90;;;10.35;;
65463;SDS011;52063;45.110;9.870;2023-08-24T03:33:13;17.52;;;11.45;;
65463;SDS011;52063;45.110;9.870;2023-08-24T03:35:39;18.53;;;11.83;;
65463;SDS011;52063;45.110;9.870;2023-08-24T03:38:05;15.27;;;12.90;;
65463;SDS011;52063;45.110;9.870;2023-08-24T03:40:31;19.90;;;12.60;;
65463;SDS011;52063;45.110;9.870;2023-08-24T03:42:56;17.92;;;13.30;;
65463;SDS011;52063;45.110;9.870;2023-08-24T03:45:22;15.30;;;12.80;;
65463;SDS011;52063;45.110;9.870;2023-08-24T03:47:47;21.45;;;13.75;;
65463;SDS011;52063;45.110;9.870;2023-08-24T03:50:13;19.50;;;13.17;;
65463;SDS011;52063;45.110;9.870;2023-08-24T03:52:40;14.13;;;11.52;;
65463;SDS011;52063;45.110;9.870;2023-08-24T03:55:08;16.97;;;12.60;;
65463;SDS011;52063;45.110;9.870;2023-08-24T03:57:34;19.98;;;12.73;;
65463;SDS011;52063;45.110;9.870;2023-08-24T04:00:01;16.90;;;12.27;;
65463;SDS011;52063;45.110;9.870;2023-08-24T04:02:39;19.77;;;13.20;;
65463;SDS011;52063;45.110;9.870;2023-08-24T04:05:06;18.08;;;13.25;;
65463;SDS011;52063;45.110;9.870;2023-08-24T04:07:32;17.47;;;11.87;;
65463;SDS011;52063;45.110;9.870;2023-08-24T04:10:01;16.50;;;11.40;;
65463;SDS011;52063;45.110;9.870;2023-08-24T04:12:30;12.80;;;9.50;;
65463;SDS011;52063;45.110;9.870;2023-08-24T04:14:56;15.83;;;10.97;;
65463;SDS011;52063;45.110;9.870;2023-08-24T04:17:23;14.45;;;11.13;;
65463;SDS011;52063;45.110;9.870;2023-08-24T04:19:48;17.08;;;12.43;;
65463;SDS011;52063;45.110;9.870;2023-08-24T04:22:14;13.90;;;11.83;;
65463;SDS011;52063;45.110;9.870;2023-08-24T04:24:40;18.02;;;12.95;;
65463;SDS011;52063;45.110;9.870;2023-08-24T04:27:06;17.90;;;13.07;;
65463;SDS011;52063;45.110;9.870;2023-08-24T04:29:31;15.70;;;9.95;;
65463;SDS011;52063;45.110;9.870;2023-08-24T04:31:57;11.13;;;9.87;;
65463;SDS011;52063;45.110;9.870;2023-08-24T04:34:22;11.90;;;8.68;;
65463;SDS011;52063;45.110;9.870;2023-08-24T04:36:48;10.73;;;9.60;;
65463;SDS011;52063;45.110;9.870;2023-08-24T04:39:13;9.70;;;8.70;;
65463;SDS011;52063;45.110;9.870;2023-08-24T04:41:39;15.43;;;10.17;;
65463;SDS011;52063;45.110;9.870;2023-08-24T04:44:04;16.73;;;11.53;;
65463;SDS011;52063;45.110;9.870;2023-08-24T04:46:30;14.47;;;11.13;;
65463;SDS011;52063;45.110;9.870;2023-08-24T04:48:55;15.33;;;11.53;;
65463;SDS011;52063;45.110;9.870;2023-08-24T04:51:21;20.77;;;11.67;;
65463;SDS011;52063;45.110;9.870;2023-08-24T04:53:46;10.30;;;9.25;;
65463;SDS011;52063;45.110;9.870;2023-08-24T04:56:12;13.13;;;8.83;;
65463;SDS011;52063;45.110;9.870;2023-08-24T04:58:37;13.73;;;10.30;;
65463;SDS011;52063;45.110;9.870;2023-08-24T05:01:02;14.67;;;10.77;;
65463;SDS011;52063;45.110;9.870;2023-08-24T05:03:28;12.38;;;9.25;;
65463;SDS011;52063;45.110;9.870;2023-08-24T05:05:53;15.40;;;9.53;;
65463;SDS011;52063;45.110;9.870;2023-08-24T05:08:19;11.23;;;8.93;;
65463;SDS011;52063;45.110;9.870;2023-08-24T05:10:44;10.23;;;8.80;;
65463;SDS011;52063;45.110;9.870;2023-08-24T05:13:10;13.88;;;10.40;;
65463;SDS011;52063;45.110;9.870;2023-08-24T05:15:37;15.80;;;11.27;;
65463;SDS011;52063;45.110;9.870;2023-08-24T05:18:02;15.73;;;9.90;;
65463;SDS011;52063;45.110;9.870;2023-08-24T05:20:28;17.35;;;11.27;;
65463;SDS011;52063;45.110;9.870;2023-08-24T05:22:54;15.63;;;11.83;;
65463;SDS011;52063;45.110;9.870;2023-08-24T05:25:24;16.50;;;11.13;;
65463;SDS011;52063;45.110;9.870;2023-08-24T05:27:50;16.70;;;12.43;;
65463;SDS011;52063;45.110;9.870;2023-08-24T05:30:15;16.85;;;13.85;;
65463;SDS011;52063;45.110;9.870;2023-08-24T05:32:41;18.97;;;13.73;;
65463;SDS011;52063;45.110;9.870;2023-08-24T05:35:06;16.23;;;11.33;;
65463;SDS011;52063;45.110;9.870;2023-08-24T05:37:32;19.73;;;11.55;;
65463;SDS011;52063;45.110;9.870;2023-08-24T05:39:59;15.13;;;11.40;;
65463;SDS011;52063;45.110;9.870;2023-08-24T05:42:25;26.20;;;11.17;;
65463;SDS011;52063;45.110;9.870;2023-08-24T05:44:50;17.05;;;12.02;;
65463;SDS011;52063;45.110;9.870;2023-08-24T05:47:15;15.23;;;11.20;;
65463;SDS011;52063;45.110;9.870;2023-08-24T05:49:41;17.70;;;12.87;;
65463;SDS011;52063;45.110;9.870;2023-08-24T05:52:07;20.17;;;14.65;;
65463;SDS011;52063;45.110;9.870;2023-08-24T05:54:32;20.50;;;14.60;;
65463;SDS011;52063;45.110;9.870;2023-08-24T05:56:58;21.40;;;13.87;;
65463;SDS011;52063;45.110;9.870;2023-08-24T05:59:28;17.90;;;13.05;;
65463;SDS011;52063;45.110;9.870;2023-08-24T06:01:54;19.45;;;13.27;;
65463;SDS011;52063;45.110;9.870;2023-08-24T06:04:19;17.93;;;12.07;;
65463;SDS011;52063;45.110;9.870;2023-08-24T06:06:44;17.50;;;12.05;;
65463;SDS011;52063;45.110;9.870;2023-08-24T06:09:10;16.07;;;12.13;;
65463;SDS011;52063;45.110;9.870;2023-08-24T06:11:35;16.37;;;12.57;;
65463;SDS011;52063;45.110;9.870;2023-08-24T06:14:01;18.43;;;13.43;;
65463;SDS011;52063;45.110;9.870;2023-08-24T06:16:30;23.30;;;14.27;;
65463;SDS011;52063;45.110;9.870;2023-08-24T06:18:55;19.20;;;12.65;;
65463;SDS011;52063;45.110;9.870;2023-08-24T06:21:21;15.83;;;12.60;;
65463;SDS011;52063;45.110;9.870;2023-08-24T06:23:46;19.52;;;13.25;;
65463;SDS011;52063;45.110;9.870;2023-08-24T06:26:15;18.20;;;13.27;;
65463;SDS011;52063;45.110;9.870;2023-08-24T06:28:42;15.10;;;12.85;;
65463;SDS011;52063;45.110;9.870;2023-08-24T06:31:07;19.67;;;13.00;;
65463;SDS011;52063;45.110;9.870;2023-08-24T06:33:35;16.88;;;13.00;;
65463;SDS011;52063;45.110;9.870;2023-08-24T06:36:02;19.63;;;13.10;;
65463;SDS011;52063;45.110;9.870;2023-08-24T06:38:30;14.60;;;12.73;;
65463;SDS011;52063;45.110;9.870;2023-08-24T06:40:57;15.70;;;12.40;;
65463;SDS011;52063;45.110;9.870;2023-08-24T06:43:23;17.88;;;11.55;;
65463;SDS011;52063;45.110;9.870;2023-08-24T06:45:48;18.50;;;12.40;;
65463;SDS011;52063;45.110;9.870;2023-08-24T06:48:14;16.23;;;11.47;;
65463;SDS011;52063;45.110;9.870;2023-08-24T06:50:39;12.90;;;10.93;;
65463;SDS011;52063;45.110;9.870;2023-08-24T06:53:05;12.53;;;10.73;;
65463;SDS011;52063;45.110;9.870;2023-08-24T06:55:30;19.47;;;12.63;;
65463;SDS011;52063;45.110;9.870;2023-08-24T06:57:56;17.67;;;11.60;;
65463;SDS011;52063;45.110;9.870;2023-08-24T07:00:22;15.83;;;11.73;;
65463;SDS011;52063;45.110;9.870;2023-08-24T07:02:48;15.13;;;10.27;;
65463;SDS011;52063;45.110;9.870;2023-08-24T07:05:14;13.68;;;10.95;;
65463;SDS011;52063;45.110;9.870;2023-08-24T07:07:44;16.17;;;12.15;;
65463;SDS011;52063;45.110;9.870;2023-08-24T07:10:10;19.73;;;13.23;;
65463;SDS011;52063;45.110;9.870;2023-08-24T07:12:35;17.13;;;14.02;;
65463;SDS011;52063;45.110;9.870;2023-08-24T07:15:01;25.73;;;14.50;;
65463;SDS011;52063;45.110;9.870;2023-08-24T07:17:26;16.25;;;12.18;;
65463;SDS011;52063;45.110;9.870;2023-08-24T07:19:52;15.27;;;11.33;;
65463;SDS011;52063;45.110;9.870;2023-08-24T07:22:17;17.13;;;12.30;;
65463;SDS011;52063;45.110;9.870;2023-08-24T07:24:44;17.30;;;13.45;;
65463;SDS011;52063;45.110;9.870;2023-08-24T07:27:10;17.60;;;13.20;;
65463;SDS011;52063;45.110;9.870;2023-08-24T07:29:35;15.90;;;12.33;;
65463;SDS011;52063;45.110;9.870;2023-08-24T07:32:01;21.20;;;12.13;;
65463;SDS011;52063;45.110;9.870;2023-08-24T07:34:26;16.27;;;11.95;;
65463;SDS011;52063;45.110;9.870;2023-08-24T07:36:51;16.80;;;9.87;;
65463;SDS011;52063;45.110;9.870;2023-08-24T07:39:18;12.80;;;9.75;;
65463;SDS011;52063;45.110;9.870;2023-08-24T07:41:44;14.53;;;10.67;;
65463;SDS011;52063;45.110;9.870;2023-08-24T07:44:10;13.60;;;9.73;;
65463;SDS011;52063;45.110;9.870;2023-08-24T07:46:35;17.70;;;10.23;;
65463;SDS011;52063;45.110;9.870;2023-08-24T07:49:01;14.83;;;11.53;;
65463;SDS011;52063;45.110;9.870;2023-08-24T07:51:26;19.52;;;11.20;;
65463;SDS011;52063;45.110;9.870;2023-08-24T07:53:53;16.48;;;10.07;;
65463;SDS011;52063;45.110;9.870;2023-08-24T07:56:18;16.37;;;11.30;;
65463;SDS011;52063;45.110;9.870;2023-08-24T07:58:44;14.90;;;10.07;;
65463;SDS011;52063;45.110;9.870;2023-08-24T08:01:10;16.50;;;9.82;;
65463;SDS011;52063;45.110;9.870;2023-08-24T08:03:35;15.10;;;9.63;;
65463;SDS011;52063;45.110;9.870;2023-08-24T08:06:01;11.43;;;9.40;;
65463;SDS011;52063;45.110;9.870;2023-08-24T08:08:27;11.45;;;8.70;;
65463;SDS011;52063;45.110;9.870;2023-08-24T08:10:59;11.13;;;9.20;;
65463;SDS011;52063;45.110;9.870;2023-08-24T08:13:25;15.30;;;8.63;;
65463;SDS011;52063;45.110;9.870;2023-08-24T08:15:51;15.65;;;9.48;;
65463;SDS011;52063;45.110;9.870;2023-08-24T08:18:16;11.00;;;8.50;;
65463;SDS011;52063;45.110;9.870;2023-08-24T08:20:42;14.52;;;8.07;;
65463;SDS011;52063;45.110;9.870;2023-08-24T08:23:07;13.93;;;8.57;;
65463;SDS011;52063;45.110;9.870;2023-08-24T08:25:33;9.77;;;8.77;;
65463;SDS011;52063;45.110;9.870;2023-08-24T08:27:58;12.60;;;8.63;;
65463;SDS011;52063;45.110;9.870;2023-08-24T08:30:24;12.32;;;7.95;;
65463;SDS011;52063;45.110;9.870;2023-08-24T08:32:49;11.63;;;8.33;;
65463;SDS011;52063;45.110;9.870;2023-08-24T08:35:16;14.30;;;9.68;;
65463;SDS011;52063;45.110;9.870;2023-08-24T08:37:42;12.90;;;8.45;;
65463;SDS011;52063;45.110;9.870;2023-08-24T08:40:09;13.33;;;9.07;;
65463;SDS011;52063;45.110;9.870;2023-08-24T08:42:35;15.52;;;9.48;;
65463;SDS011;52063;45.110;9.870;2023-08-24T08:45:02;12.15;;;10.05;;
65463;SDS011;52063;45.110;9.870;2023-08-24T08:47:29;15.20;;;8.97;;
65463;SDS011;52063;45.110;9.870;2023-08-24T08:49:55;14.05;;;9.05;;
65463;SDS011;52063;45.110;9.870;2023-08-24T08:52:21;16.40;;;9.27;;
65463;SDS011;52063;45.110;9.870;2023-08-24T08:54:47;13.67;;;8.63;;
65463;SDS011;52063;45.110;9.870;2023-08-24T08:57:12;12.33;;;8.57;;
65463;SDS011;52063;45.110;9.870;2023-08-24T08:59:39;15.10;;;8.27;;
65463;SDS011;52063;45.110;9.870;2023-08-24T09:02:06;10.20;;;7.97;;
65463;SDS011;52063;45.110;9.870;2023-08-24T09:04:32;12.15;;;8.10;;
65463;SDS011;52063;45.110;9.870;2023-08-24T09:06:59;17.08;;;8.27;;
65463;SDS011;52063;45.110;9.870;2023-08-24T09:09:28;16.07;;;8.87;;
65463;SDS011;52063;45.110;9.870;2023-08-24T09:11:54;13.65;;;8.27;;
65463;SDS011;52063;45.110;9.870;2023-08-24T09:14:19;11.70;;;8.03;;
65463;SDS011;52063;45.110;9.870;2023-08-24T09:16:45;12.10;;;8.57;;
65463;SDS011;52063;45.110;9.870;2023-08-24T09:19:11;12.38;;;8.20;;
65463;SDS011;52063;45.110;9.870;2023-08-24T09:21:37;11.00;;;8.23;;
65463;SDS011;52063;45.110;9.870;2023-08-24T09:24:05;16.55;;;8.15;;
65463;SDS011;52063;45.110;9.870;2023-08-24T09:26:34;10.52;;;8.07;;
65463;SDS011;52063;45.110;9.870;2023-08-24T09:29:10;10.35;;;8.20;;
65463;SDS011;52063;45.110;9.870;2023-08-24T09:31:39;11.52;;;7.93;;
65463;SDS011;52063;45.110;9.870;2023-08-24T09:34:06;11.63;;;8.60;;
65463;SDS011;52063;45.110;9.870;2023-08-24T09:36:32;15.48;;;8.00;;
65463;SDS011;52063;45.110;9.870;2023-08-24T09:39:01;13.10;;;8.48;;
65463;SDS011;52063;45.110;9.870;2023-08-24T09:41:41;10.07;;;7.93;;
65463;SDS011;52063;45.110;9.870;2023-08-24T09:44:11;14.32;;;8.07;;
65463;SDS011;52063;45.110;9.870;2023-08-24T09:46:37;14.73;;;7.93;;
65463;SDS011;52063;45.110;9.870;2023-08-24T09:49:07;11.70;;;8.90;;
65463;SDS011;52063;45.110;9.870;2023-08-24T09:51:34;13.32;;;8.80;;
65463;SDS011;52063;45.110;9.870;2023-08-24T09:54:02;14.07;;;8.20;;
65463;SDS011;52063;45.110;9.870;2023-08-24T09:56:42;9.63;;;8.00;;
65463;SDS011;52063;45.110;9.870;2023-08-24T10:01:43;12.93;;;8.05;;
65463;SDS011;52063;45.110;9.870;2023-08-24T10:04:10;10.93;;;8.18;;
65463;SDS011;52063;45.110;9.870;2023-08-24T10:06:38;12.13;;;8.80;;
65463;SDS011;52063;45.110;9.870;2023-08-24T10:09:06;12.73;;;8.57;;
65463;SDS011;52063;45.110;9.870;2023-08-24T10:11:34;10.17;;;7.77;;
65463;SDS011;52063;45.110;9.870;2023-08-24T10:16:33;11.15;;;8.10;;
65463;SDS011;52063;45.110;9.870;2023-08-24T10:18:59;10.02;;;7.93;;
65463;SDS011;52063;45.110;9.870;2023-08-24T10:21:25;10.95;;;8.20;;
65463;SDS011;52063;45.110;9.870;2023-08-24T10:23:52;9.67;;;7.70;;
65463;SDS011;52063;45.110;9.870;2023-08-24T10:26:19;11.10;;;7.85;;
65463;SDS011;52063;45.110;9.870;2023-08-24T10:28:45;14.57;;;8.85;;
65463;SDS011;52063;45.110;9.870;2023-08-24T10:31:11;11.38;;;7.82;;
65463;SDS011;52063;45.110;9.870;2023-08-24T10:33:37;11.40;;;7.47;;
65463;SDS011;52063;45.110;9.870;2023-08-24T10:36:06;8.90;;;8.00;;
65463;SDS011;52063;45.110;9.870;2023-08-24T10:38:34;9.52;;;7.85;;
65463;SDS011;52063;45.110;9.870;2023-08-24T10:41:02;8.70;;;7.40;;
65463;SDS011;52063;45.110;9.870;2023-08-24T10:43:35;8.10;;;7.22;;
65463;SDS011;52063;45.110;9.870;2023-08-24T10:46:02;10.05;;;6.90;;
65463;SDS011;52063;45.110;9.870;2023-08-24T10:48:56;11.18;;;7.55;;
65463;SDS011;52063;45.110;9.870;2023-08-24T10:53:45;8.97;;;7.50;;
65463;SDS011;52063;45.110;9.870;2023-08-24T10:56:12;7.93;;;7.22;;
65463;SDS011;52063;45.110;9.870;2023-08-24T10:58:38;10.25;;;6.88;;
65463;SDS011;52063;45.110;9.870;2023-08-24T11:01:04;9.80;;;7.30;;
65463;SDS011;52063;45.110;9.870;2023-08-24T11:03:33;13.13;;;6.47;;
65463;SDS011;52063;45.110;9.870;2023-08-24T11:05:59;6.97;;;6.37;;
65463;SDS011;52063;45.110;9.870;2023-08-24T11:11:19;9.35;;;6.40;;
65463;SDS011;52063;45.110;9.870;2023-08-24T11:16:41;7.30;;;5.90;;
65463;SDS011;52063;45.110;9.870;2023-08-24T11:19:07;6.97;;;5.88;;
65463;SDS011;52063;45.110;9.870;2023-08-24T11:21:33;8.52;;;5.80;;
65463;SDS011;52063;45.110;9.870;2023-08-24T11:23:59;6.70;;;6.00;;
65463;SDS011;52063;45.110;9.870;2023-08-24T11:26:25;6.07;;;5.57;;
65463;SDS011;52063;45.110;9.870;2023-08-24T11:28:54;8.18;;;5.75;;
65463;SDS011;52063;45.110;9.870;2023-08-24T11:31:20;6.13;;;5.50;;
65463;SDS011;52063;45.110;9.870;2023-08-24T11:33:46;5.63;;;5.13;;
65463;SDS011;52063;45.110;9.870;2023-08-24T11:36:11;10.20;;;5.40;;
65463;SDS011;52063;45.110;9.870;2023-08-24T11:41:16;6.70;;;5.15;;
65463;SDS011;52063;45.110;9.870;2023-08-24T11:43:42;8.43;;;4.82;;
65463;SDS011;52063;45.110;9.870;2023-08-24T11:46:09;5.32;;;4.82;;
65463;SDS011;52063;45.110;9.870;2023-08-24T11:48:34;5.77;;;4.97;;
65463;SDS011;52063;45.110;9.870;2023-08-24T11:51:01;6.70;;;4.82;;
65463;SDS011;52063;45.110;9.870;2023-08-24T11:53:27;7.07;;;4.67;;
65463;SDS011;52063;45.110;9.870;2023-08-24T11:55:54;5.53;;;5.00;;
65463;SDS011;52063;45.110;9.870;2023-08-24T11:58:20;5.15;;;4.70;;
65463;SDS011;52063;45.110;9.870;2023-08-24T12:00:45;5.77;;;4.17;;
65463;SDS011;52063;45.110;9.870;2023-08-24T12:03:11;5.00;;;4.50;;
65463;SDS011;52063;45.110;9.870;2023-08-24T12:05:37;6.50;;;4.30;;
65463;SDS011;52063;45.110;9.870;2023-08-24T12:08:03;6.88;;;4.30;;
65463;SDS011;52063;45.110;9.870;2023-08-24T12:10:29;4.35;;;3.95;;
65463;SDS011;52063;45.110;9.870;2023-08-24T12:13:04;5.87;;;4.13;;
65463;SDS011;52063;45.110;9.870;2023-08-24T12:15:30;6.85;;;4.00;;
65463;SDS011;52063;45.110;9.870;2023-08-24T12:18:06;5.35;;;3.80;;
65463;SDS011;52063;45.110;9.870;2023-08-24T12:20:40;4.82;;;3.97;;
65463;SDS011;52063;45.110;9.870;2023-08-24T12:23:07;7.57;;;4.10;;
65463;SDS011;52063;45.110;9.870;2023-08-24T12:25:42;4.20;;;3.45;;
65463;SDS011;52063;45.110;9.870;2023-08-24T12:28:09;4.60;;;3.80;;
65463;SDS011;52063;45.110;9.870;2023-08-24T12:33:24;5.05;;;3.70;;
65463;SDS011;52063;45.110;9.870;2023-08-24T12:35:50;5.00;;;3.40;;
65463;SDS011;52063;45.110;9.870;2023-08-24T12:38:16;6.20;;;4.15;;
65463;SDS011;52063;45.110;9.870;2023-08-24T12:40:42;5.80;;;3.70;;
65463;SDS011;52063;45.110;9.870;2023-08-24T12:43:07;4.97;;;3.87;;
65463;SDS011;52063;45.110;9.870;2023-08-24T12:45:33;6.88;;;3.53;;
65463;SDS011;52063;45.110;9.870;2023-08-24T12:47:59;5.25;;;3.78;;
65463;SDS011;52063;45.110;9.870;2023-08-24T12:50:24;9.30;;;3.60;;
65463;SDS011;52063;45.110;9.870;2023-08-24T12:52:50;5.20;;;3.70;;
65463;SDS011;52063;45.110;9.870;2023-08-24T12:55:20;5.45;;;4.13;;
65463;SDS011;52063;45.110;9.870;2023-08-24T12:57:46;5.10;;;3.95;;
65463;SDS011;52063;45.110;9.870;2023-08-24T13:00:11;8.17;;;4.03;;
65463;SDS011;52063;45.110;9.870;2023-08-24T13:02:37;6.22;;;4.18;;
65463;SDS011;52063;45.110;9.870;2023-08-24T13:05:03;6.10;;;3.90;;
65463;SDS011;52063;45.110;9.870;2023-08-24T13:07:29;6.18;;;3.90;;
65463;SDS011;52063;45.110;9.870;2023-08-24T13:09:54;7.20;;;3.80;;
65463;SDS011;52063;45.110;9.870;2023-08-24T13:12:20;6.37;;;4.20;;
65463;SDS011;52063;45.110;9.870;2023-08-24T13:14:46;5.35;;;3.80;;
65463;SDS011;52063;45.110;9.870;2023-08-24T13:17:12;5.82;;;4.20;;
65463;SDS011;52063;45.110;9.870;2023-08-24T13:19:37;6.20;;;3.90;;
65463;SDS011;52063;45.110;9.870;2023-08-24T13:22:03;5.63;;;3.47;;
65463;SDS011;52063;45.110;9.870;2023-08-24T13:24:28;6.13;;;3.83;;
65463;SDS011;52063;45.110;9.870;2023-08-24T13:26:54;6.27;;;3.93;;
65463;SDS011;52063;45.110;9.870;2023-08-24T13:29:19;6.07;;;3.90;;
65463;SDS011;52063;45.110;9.870;2023-08-24T13:31:45;4.30;;;4.00;;
65463;SDS011;52063;45.110;9.870;2023-08-24T13:34:10;5.90;;;3.90;;
65463;SDS011;52063;45.110;9.870;2023-08-24T13:36:35;7.97;;;4.50;;
65463;SDS011;52063;45.110;9.870;2023-08-24T13:39:01;5.80;;;4.03;;
65463;SDS011;52063;45.110;9.870;2023-08-24T13:41:27;4.47;;;3.97;;
65463;SDS011;52063;45.110;9.870;2023-08-24T13:43:53;4.57;;;4.07;;
65463;SDS011;52063;45.110;9.870;2023-08-24T13:46:18;5.07;;;4.47;;
65463;SDS011;52063;45.110;9.870;2023-08-24T13:48:44;6.50;;;3.83;;
65463;SDS011;52063;45.110;9.870;2023-08-24T13:51:09;6.33;;;4.40;;
65463;SDS011;52063;45.110;9.870;2023-08-24T13:53:34;5.60;;;4.40;;
65463;SDS011;52063;45.110;9.870;2023-08-24T13:56:00;8.10;;;4.13;;
65463;SDS011;52063;45.110;9.870;2023-08-24T13:58:25;5.50;;;3.93;;
65463;SDS011;52063;45.110;9.870;2023-08-24T14:00:57;4.93;;;3.87;;
65463;SDS011;52063;45.110;9.870;2023-08-24T14:03:22;6.55;;;4.00;;
65463;SDS011;52063;45.110;9.870;2023-08-24T14:05:48;5.57;;;4.50;;
65463;SDS011;52063;45.110;9.870;2023-08-24T14:08:15;6.30;;;4.28;;
65463;SDS011;52063;45.110;9.870;2023-08-24T14:10:40;4.53;;;4.10;;
65463;SDS011;52063;45.110;9.870;2023-08-24T14:13:06;5.40;;;3.90;;
65463;SDS011;52063;45.110;9.870;2023-08-24T14:15:31;5.40;;;4.53;;
65463;SDS011;52063;45.110;9.870;2023-08-24T14:17:57;6.20;;;4.50;;
65463;SDS011;52063;45.110;9.870;2023-08-24T14:20:22;5.27;;;4.30;;
65463;SDS011;52063;45.110;9.870;2023-08-24T14:22:47;6.53;;;3.97;;
65463;SDS011;52063;45.110;9.870;2023-08-24T14:25:14;5.80;;;4.32;;
65463;SDS011;52063;45.110;9.870;2023-08-24T14:27:39;10.33;;;4.37;;
65463;SDS011;52063;45.110;9.870;2023-08-24T14:30:07;4.83;;;3.97;;
65463;SDS011;52063;45.110;9.870;2023-08-24T14:32:33;5.32;;;4.13;;
65463;SDS011;52063;45.110;9.870;2023-08-24T14:34:59;5.35;;;4.70;;
65463;SDS011;52063;45.110;9.870;2023-08-24T14:37:24;4.40;;;4.00;;
65463;SDS011;52063;45.110;9.870;2023-08-24T14:39:50;6.40;;;4.25;;
65463;SDS011;52063;45.110;9.870;2023-08-24T14:42:16;6.33;;;4.37;;
65463;SDS011;52063;45.110;9.870;2023-08-24T14:44:41;4.65;;;4.20;;
65463;SDS011;52063;45.110;9.870;2023-08-24T14:47:07;6.03;;;3.93;;
65463;SDS011;52063;45.110;9.870;2023-08-24T14:49:32;9.00;;;4.67;;
65463;SDS011;52063;45.110;9.870;2023-08-24T14:51:58;4.75;;;4.15;;